Time;durP1;ratioP1;P1;durP2;ratioP2;P2;SDS_P1;SDS_P2;PMS_P1;PMS_P2;Temp;Humidity;BMP_temperature;BMP_pressure;BME280_temperature;BME280_humidity;BME280_pressure;Samples;Min_cycle;Max_cycle;Signal;HPM_P1;HPM_P2
2023/10/28 00:00:48;;;;;;;1.60;1.40;;;11.70;98.00;;;;;;5070922;28;20490;-68
2023/10/28 00:03:15;;;;;;;1.73;1.47;;;11.60;98.00;;;;;;5071749;28;20526;-66
2023/10/28 00:05:42;;;;;;;1.80;1.50;;;11.70;98.00;;;;;;5072495;28;20457;-67
2023/10/28 00:08:09;;;;;;;1.80;1.57;;;11.60;98.00;;;;;;5071796;28;20485;-66
2023/10/28 00:10:36;;;;;;;2.03;1.30;;;11.60;98.00;;;;;;5071711;28;20446;-66
2023/10/28 00:13:07;;;;;;;1.90;1.57;;;11.60;98.00;;;;;;5072379;28;20447;-67
2023/10/28 00:15:34;;;;;;;2.20;1.50;;;11.70;98.00;;;;;;5071216;28;20857;-67
2023/10/28 00:18:02;;;;;;;1.50;1.30;;;11.60;98.00;;;;;;5071345;28;20721;-66
2023/10/28 00:20:30;;;;;;;1.80;1.50;;;11.50;98.00;;;;;;5069750;28;20477;-67
2023/10/28 00:22:57;;;;;;;1.57;1.30;;;11.50;98.00;;;;;;5071025;28;20883;-67
2023/10/28 00:25:27;;;;;;;1.40;1.10;;;11.60;98.00;;;;;;5070949;28;20862;-67
2023/10/28 00:27:55;;;;;;;2.43;1.50;;;11.50;98.00;;;;;;5071076;28;20482;-68
2023/10/28 00:30:24;;;;;;;2.07;1.40;;;11.50;98.00;;;;;;5070673;28;20500;-66
2023/10/28 00:32:52;;;;;;;1.40;1.40;;;11.40;98.00;;;;;;5071061;28;20462;-69
2023/10/28 00:35:21;;;;;;;2.13;1.30;;;11.40;98.00;;;;;;5070922;28;20449;-66
2023/10/28 00:37:48;;;;;;;1.30;1.20;;;11.50;98.00;;;;;;5071120;28;20446;-67
2023/10/28 00:40:17;;;;;;;1.70;1.40;;;11.40;98.00;;;;;;5071132;28;20449;-66
2023/10/28 00:42:45;;;;;;;1.50;1.30;;;11.50;98.00;;;;;;5070713;28;20824;-67
2023/10/28 00:45:15;;;;;;;1.50;1.17;;;11.50;98.00;;;;;;5070837;28;20451;-66
2023/10/28 00:47:46;;;;;;;2.10;1.20;;;11.40;98.00;;;;;;5070740;28;20458;-67
2023/10/28 00:50:15;;;;;;;2.10;1.47;;;11.50;98.00;;;;;;5070632;28;20514;-66
2023/10/28 00:52:45;;;;;;;7.53;1.67;;;11.50;98.00;;;;;;5070782;28;20482;-67
2023/10/28 00:55:12;;;;;;;2.00;1.37;;;11.40;98.00;;;;;;5070671;28;20466;-66
2023/10/28 00:57:40;;;;;;;1.90;1.20;;;11.40;98.00;;;;;;5070474;28;20524;-67
2023/10/28 01:00:10;;;;;;;1.43;1.27;;;11.40;98.00;;;;;;5070663;28;20453;-68
2023/10/28 01:02:40;;;;;;;1.43;1.30;;;11.40;98.00;;;;;;5070385;28;20456;-67
2023/10/28 01:05:11;;;;;;;1.20;1.10;;;11.40;98.00;;;;;;5070632;28;20967;-67
2023/10/28 01:07:39;;;;;;;1.50;1.30;;;11.40;98.00;;;;;;5070837;28;20454;-66
2023/10/28 01:10:08;;;;;;;2.80;1.37;;;11.40;98.00;;;;;;5070522;28;20881;-67
2023/10/28 01:12:35;;;;;;;1.57;1.10;;;11.40;98.00;;;;;;5071600;28;20455;-69
2023/10/28 01:15:02;;;;;;;1.20;1.10;;;11.40;98.00;;;;;;5074173;28;20970;-67
2023/10/28 01:17:31;;;;;;;1.20;1.10;;;11.40;98.00;;;;;;5073989;28;20457;-66
2023/10/28 01:19:58;;;;;;;1.40;1.23;;;11.30;98.00;;;;;;5074273;28;20454;-66
2023/10/28 01:22:27;;;;;;;1.30;1.20;;;11.40;98.00;;;;;;5074113;28;20951;-66
2023/10/28 01:24:54;;;;;;;1.40;1.20;;;11.50;98.00;;;;;;5074284;28;20531;-66
2023/10/28 01:27:21;;;;;;;1.60;1.20;;;11.40;98.00;;;;;;5074056;28;21007;-67
2023/10/28 01:29:48;;;;;;;1.63;1.20;;;11.40;98.00;;;;;;5072752;28;20487;-67
2023/10/28 01:32:16;;;;;;;1.40;1.20;;;11.40;98.00;;;;;;5073948;28;20449;-65
2023/10/28 01:34:54;;;;;;;1.63;1.20;;;11.40;98.00;;;;;;5073942;28;20458;-66
2023/10/28 01:37:22;;;;;;;1.40;1.13;;;11.40;98.00;;;;;;5073739;28;20514;-68
2023/10/28 01:39:52;;;;;;;1.60;1.30;;;11.40;98.00;;;;;;5073628;28;20453;-68
2023/10/28 01:42:22;;;;;;;2.17;1.30;;;11.50;98.00;;;;;;5073517;28;20519;-67
2023/10/28 01:44:49;;;;;;;1.30;1.17;;;11.50;98.00;;;;;;5073855;28;20462;-69
2023/10/28 01:47:17;;;;;;;1.20;1.10;;;11.50;98.00;;;;;;5073626;28;20469;-66
2023/10/28 01:49:44;;;;;;;1.50;1.47;;;11.50;98.00;;;;;;5073096;28;21018;-67
2023/10/28 01:52:12;;;;;;;2.70;1.20;;;11.50;98.00;;;;;;5073315;28;20534;-66
2023/10/28 01:54:39;;;;;;;1.20;1.20;;;11.40;98.00;;;;;;5073661;28;20458;-66
2023/10/28 01:57:10;;;;;;;2.43;1.20;;;11.40;98.00;;;;;;5073264;28;20462;-67
2023/10/28 01:59:38;;;;;;;5.03;1.33;;;11.40;98.00;;;;;;5073208;28;20508;-66
2023/10/28 02:02:05;;;;;;;3.00;1.20;;;11.30;98.00;;;;;;5072945;28;20465;-67
2023/10/28 02:04:33;;;;;;;1.80;1.30;;;11.40;98.00;;;;;;5073018;28;20443;-67
2023/10/28 02:07:01;;;;;;;1.80;1.30;;;11.40;98.00;;;;;;5073083;28;20800;-67
2023/10/28 02:09:29;;;;;;;1.60;1.30;;;11.40;98.00;;;;;;5072855;28;20504;-66
2023/10/28 02:11:56;;;;;;;1.70;1.10;;;11.40;98.00;;;;;;5073010;28;20455;-66
2023/10/28 02:14:25;;;;;;;1.40;1.30;;;11.40;98.00;;;;;;5072905;28;20453;-66
2023/10/28 02:16:53;;;;;;;2.60;1.40;;;11.40;98.00;;;;;;5072790;28;20461;-67
2023/10/28 02:19:21;;;;;;;1.70;1.30;;;11.40;98.00;;;;;;5072883;28;20940;-66
2023/10/28 02:21:48;;;;;;;2.50;1.40;;;11.40;98.00;;;;;;5072693;28;20488;-66
2023/10/28 02:24:17;;;;;;;1.77;1.30;;;11.40;98.00;;;;;;5071500;28;20453;-66
2023/10/28 02:26:44;;;;;;;3.17;1.30;;;11.40;98.00;;;;;;5072550;28;20456;-66
2023/10/28 02:29:11;;;;;;;1.60;1.27;;;11.30;98.00;;;;;;5072664;28;20491;-66
2023/10/28 02:31:40;;;;;;;1.63;1.23;;;11.30;98.00;;;;;;5072636;28;20872;-68
2023/10/28 02:34:07;;;;;;;1.83;1.30;;;11.30;98.00;;;;;;5072591;28;20452;-67
2023/10/28 02:36:34;;;;;;;2.77;1.20;;;11.40;98.00;;;;;;5072376;28;20450;-67
2023/10/28 02:39:01;;;;;;;1.53;1.33;;;11.40;98.00;;;;;;5072412;28;20456;-67
2023/10/28 02:41:30;;;;;;;1.40;1.20;;;11.50;98.00;;;;;;5072337;28;20479;-67
2023/10/28 02:43:58;;;;;;;1.50;1.40;;;11.40;98.00;;;;;;5072617;28;20446;-68
2023/10/28 02:46:26;;;;;;;2.40;1.30;;;11.40;98.00;;;;;;5072298;28;20557;-67
2023/10/28 02:48:54;;;;;;;2.07;1.40;;;11.50;98.00;;;;;;5072014;28;20451;-66
2023/10/28 02:51:22;;;;;;;1.40;1.20;;;11.50;98.00;;;;;;5072099;28;20450;-66
2023/10/28 02:53:51;;;;;;;2.07;1.40;;;11.40;98.00;;;;;;5072250;28;20448;-67
2023/10/28 02:56:19;;;;;;;2.43;1.67;;;11.40;98.00;;;;;;5072112;28;20961;-66
2023/10/28 02:58:46;;;;;;;2.43;2.00;;;11.40;98.00;;;;;;5072329;28;20462;-67
2023/10/28 03:01:14;;;;;;;1.70;1.30;;;11.30;98.00;;;;;;5071969;28;20464;-68
2023/10/28 03:03:43;;;;;;;2.43;1.50;;;11.40;98.00;;;;;;5072309;28;21074;-66
2023/10/28 03:06:11;;;;;;;4.90;1.67;;;11.40;98.00;;;;;;5071999;28;20940;-67
2023/10/28 03:08:39;;;;;;;1.77;1.20;;;11.30;98.00;;;;;;5071809;28;20459;-67
2023/10/28 03:11:06;;;;;;;1.80;1.30;;;11.30;98.00;;;;;;5071793;28;20497;-66
2023/10/28 03:13:33;;;;;;;3.93;1.50;;;11.30;98.00;;;;;;5071852;28;20453;-67
2023/10/28 03:16:00;;;;;;;1.60;1.20;;;11.30;98.00;;;;;;5071917;28;20849;-67
2023/10/28 03:18:27;;;;;;;2.37;1.40;;;11.30;98.00;;;;;;5070473;28;20451;-67
2023/10/28 03:20:55;;;;;;;1.40;1.10;;;11.30;98.00;;;;;;5071592;28;20539;-66
2023/10/28 03:23:25;;;;;;;2.40;1.70;;;11.30;98.00;;;;;;5071640;28;20536;-67
2023/10/28 03:25:52;;;;;;;5.20;1.60;;;11.40;98.00;;;;;;5071391;28;20447;-66
2023/10/28 03:28:20;;;;;;;1.80;1.47;;;11.30;98.00;;;;;;5071937;28;20459;-67
2023/10/28 03:30:47;;;;;;;2.50;1.50;;;11.40;98.00;;;;;;5071079;28;21061;-67
2023/10/28 03:33:14;;;;;;;1.83;1.37;;;11.40;98.00;;;;;;5071676;28;20452;-66
2023/10/28 03:35:41;;;;;;;5.23;1.60;;;11.40;98.00;;;;;;5071168;28;20792;-66
2023/10/28 03:38:09;;;;;;;2.13;1.53;;;11.30;98.00;;;;;;5071591;28;20454;-67
2023/10/28 03:40:38;;;;;;;3.73;1.67;;;11.30;98.00;;;;;;5071432;28;20516;-66
2023/10/28 03:43:05;;;;;;;3.83;1.30;;;11.30;98.00;;;;;;5071458;28;20474;-67
2023/10/28 03:45:33;;;;;;;3.30;1.80;;;11.30;98.00;;;;;;5071384;28;20989;-67
2023/10/28 03:48:01;;;;;;;6.50;1.60;;;11.30;98.00;;;;;;5071430;28;20446;-67
2023/10/28 03:50:28;;;;;;;2.77;1.60;;;11.30;98.00;;;;;;5071190;28;20484;-66
2023/10/28 03:52:55;;;;;;;1.47;1.23;;;11.30;98.00;;;;;;5070082;28;20462;-67
2023/10/28 03:55:23;;;;;;;2.47;1.60;;;11.30;98.00;;;;;;5071163;28;20494;-67
2023/10/28 03:57:51;;;;;;;9.93;1.90;;;11.40;98.00;;;;;;5071039;28;20447;-66
2023/10/28 04:00:18;;;;;;;2.80;1.70;;;11.40;98.00;;;;;;5070874;28;20454;-66
2023/10/28 04:02:45;;;;;;;2.37;1.60;;;11.40;98.00;;;;;;5069836;28;20527;-66
2023/10/28 04:05:12;;;;;;;4.23;1.73;;;11.40;98.00;;;;;;5071108;28;20451;-67
2023/10/28 04:07:39;;;;;;;4.17;1.50;;;11.40;98.00;;;;;;5069795;28;20462;-66
2023/10/28 04:10:08;;;;;;;2.00;1.43;;;11.50;98.00;;;;;;5071135;28;20491;-66
2023/10/28 04:12:36;;;;;;;2.30;1.30;;;11.50;98.00;;;;;;5071074;28;20456;-66
2023/10/28 04:15:05;;;;;;;2.90;1.40;;;11.50;98.00;;;;;;5071157;28;20483;-68
2023/10/28 04:17:33;;;;;;;2.00;1.40;;;11.40;98.00;;;;;;5071145;28;20518;-66
2023/10/28 04:20:00;;;;;;;2.30;1.50;;;11.50;98.00;;;;;;5071201;28;20863;-68
2023/10/28 04:22:28;;;;;;;2.37;1.23;;;11.50;98.00;;;;;;5070886;28;21014;-67
2023/10/28 04:24:56;;;;;;;7.50;1.60;;;11.50;98.00;;;;;;5069758;28;20455;-67
2023/10/28 04:27:23;;;;;;;2.67;1.60;;;11.60;98.00;;;;;;5070960;28;21119;-67
2023/10/28 04:29:51;;;;;;;2.33;1.40;;;11.60;98.00;;;;;;5070805;28;20897;-67
2023/10/28 04:32:22;;;;;;;1.70;1.50;;;11.60;98.00;;;;;;5070930;28;20458;-67
2023/10/28 04:34:51;;;;;;;3.17;1.40;;;11.60;98.00;;;;;;5071154;28;20456;-66
2023/10/28 04:37:18;;;;;;;4.60;1.70;;;11.70;98.00;;;;;;5070914;28;20451;-67
2023/10/28 04:39:45;;;;;;;2.83;1.50;;;11.70;98.00;;;;;;5071027;28;20503;-67
2023/10/28 04:42:12;;;;;;;2.10;1.53;;;11.70;98.00;;;;;;5071245;28;20549;-67
2023/10/28 04:44:39;;;;;;;3.27;1.87;;;11.60;98.00;;;;;;5071028;28;20464;-67
2023/10/28 04:47:06;;;;;;;3.77;1.50;;;11.70;98.00;;;;;;5071261;28;20939;-66
2023/10/28 04:49:35;;;;;;;2.43;1.70;;;11.70;98.00;;;;;;5074450;28;20487;-66
2023/10/28 04:52:02;;;;;;;2.00;1.50;;;11.60;98.00;;;;;;5074504;28;20459;-67
2023/10/28 04:54:29;;;;;;;1.83;1.50;;;11.70;98.00;;;;;;5074525;28;20441;-67
2023/10/28 04:56:59;;;;;;;1.83;1.40;;;11.70;98.00;;;;;;5074507;28;20514;-67
2023/10/28 04:59:28;;;;;;;2.07;1.73;;;11.60;98.00;;;;;;5074374;28;20486;-67
2023/10/28 05:01:55;;;;;;;2.70;1.40;;;11.60;98.00;;;;;;5073079;28;20825;-67
2023/10/28 05:04:24;;;;;;;2.80;1.40;;;11.50;98.00;;;;;;5074484;28;20589;-67
2023/10/28 05:06:54;;;;;;;2.37;1.50;;;11.40;98.00;;;;;;5074156;28;20454;-67
2023/10/28 05:09:23;;;;;;;2.43;1.67;;;11.40;98.00;;;;;;5074303;28;20555;-67
2023/10/28 05:11:54;;;;;;;3.10;1.60;;;11.30;98.00;;;;;;5074192;28;20782;-66
2023/10/28 05:14:24;;;;;;;2.20;1.60;;;11.30;98.00;;;;;;5074054;28;20546;-67
2023/10/28 05:16:52;;;;;;;4.37;1.50;;;11.30;98.00;;;;;;5074019;28;20461;-68
2023/10/28 05:19:22;;;;;;;2.03;1.43;;;11.30;98.00;;;;;;5073920;28;20450;-68
2023/10/28 05:21:49;;;;;;;2.40;1.50;;;11.30;98.00;;;;;;5073919;28;20465;-66
2023/10/28 05:24:18;;;;;;;3.40;1.63;;;11.40;98.00;;;;;;5073909;28;20452;-67
2023/10/28 05:26:45;;;;;;;3.10;1.30;;;11.40;98.00;;;;;;5073760;28;20457;-67
2023/10/28 05:29:12;;;;;;;4.80;1.83;;;11.30;98.00;;;;;;5073945;28;20455;-67
2023/10/28 05:31:39;;;;;;;4.20;1.43;;;11.30;98.00;;;;;;5073676;28;20941;-66
2023/10/28 05:34:06;;;;;;;3.37;1.63;;;11.40;98.00;;;;;;5073768;28;20460;-66
2023/10/28 05:36:34;;;;;;;3.33;1.90;;;11.30;98.00;;;;;;5073577;28;20454;-67
2023/10/28 05:39:03;;;;;;;2.43;1.27;;;11.30;98.00;;;;;;5072430;28;20550;-67
2023/10/28 05:41:31;;;;;;;4.33;1.77;;;11.20;98.00;;;;;;5073536;28;20449;-67
2023/10/28 05:43:58;;;;;;;3.20;1.50;;;11.20;98.00;;;;;;5073722;28;20446;-66
2023/10/28 05:46:25;;;;;;;8.03;1.60;;;11.20;98.00;;;;;;5073456;28;20447;-66
2023/10/28 05:48:52;;;;;;;2.33;1.30;;;11.30;98.00;;;;;;5073443;28;20458;-67
2023/10/28 05:51:19;;;;;;;2.50;1.50;;;11.30;98.00;;;;;;5073466;28;20848;-67
2023/10/28 05:53:46;;;;;;;4.83;1.50;;;11.30;98.00;;;;;;5073396;28;20451;-68
2023/10/28 05:56:16;;;;;;;4.23;1.50;;;11.30;98.00;;;;;;5072139;28;20467;-68
2023/10/28 05:58:44;;;;;;;3.67;1.43;;;11.30;98.00;;;;;;5072842;28;20520;-63
2023/10/28 06:01:13;;;;;;;1.70;1.40;;;11.40;98.00;;;;;;5073050;28;20473;-63
2023/10/28 06:03:40;;;;;;;1.60;1.20;;;11.40;98.00;;;;;;5073255;28;20443;-63
2023/10/28 06:06:07;;;;;;;2.20;1.47;;;11.40;98.00;;;;;;5073143;28;20445;-63
2023/10/28 06:08:34;;;;;;;1.50;1.20;;;11.50;98.00;;;;;;5073028;28;20451;-63
2023/10/28 06:11:02;;;;;;;3.50;1.40;;;11.50;98.00;;;;;;5072783;28;20561;-63
2023/10/28 06:13:29;;;;;;;2.37;1.50;;;11.60;98.00;;;;;;5073076;28;20463;-62
2023/10/28 06:15:57;;;;;;;5.23;1.53;;;11.70;98.00;;;;;;5071716;28;20494;-63
2023/10/28 06:18:24;;;;;;;1.83;1.40;;;11.70;98.00;;;;;;5073027;28;20815;-63
2023/10/28 06:20:55;;;;;;;3.20;1.43;;;11.70;98.00;;;;;;5073161;28;20846;-63
2023/10/28 06:23:22;;;;;;;1.50;1.33;;;11.70;98.00;;;;;;5073130;28;20463;-63
2023/10/28 06:25:49;;;;;;;3.20;1.40;;;11.70;98.00;;;;;;5073215;28;20986;-64
2023/10/28 06:28:18;;;;;;;9.20;1.57;;;11.70;98.00;;;;;;5072868;28;20453;-63
2023/10/28 06:30:48;;;;;;;2.27;1.50;;;11.80;98.00;;;;;;5073689;28;20890;-63
2023/10/28 06:33:17;;;;;;;1.40;1.40;;;11.90;98.00;;;;;;5072921;28;20748;-63
2023/10/28 06:35:44;;;;;;;1.60;1.40;;;11.90;98.00;;;;;;5073607;28;21175;-63
2023/10/28 06:38:11;;;;;;;3.57;1.63;;;12.00;98.00;;;;;;5073320;28;20532;-63
2023/10/28 06:40:38;;;;;;;3.97;1.47;;;12.10;98.00;;;;;;5072551;28;20454;-63
2023/10/28 06:43:06;;;;;;;4.33;1.27;;;12.10;98.00;;;;;;5072943;28;20461;-64
2023/10/28 06:45:33;;;;;;;2.00;1.40;;;12.20;98.00;;;;;;5072601;28;20446;-63
2023/10/28 06:48:00;;;;;;;1.40;1.30;;;12.20;98.00;;;;;;5072534;28;20500;-63
2023/10/28 06:50:30;;;;;;;2.57;1.60;;;12.20;98.00;;;;;;5072363;28;20473;-63
2023/10/28 06:52:59;;;;;;;2.33;1.50;;;12.20;98.00;;;;;;5072332;28;20455;-62
2023/10/28 06:55:28;;;;;;;5.77;2.90;;;12.20;98.00;;;;;;5072237;28;20897;-63
2023/10/28 06:57:55;;;;;;;3.50;1.80;;;12.30;98.00;;;;;;5072197;28;20544;-62
2023/10/28 07:00:27;;;;;;;3.67;2.07;;;12.30;98.00;;;;;;5072237;28;20460;-63
2023/10/28 07:02:54;;;;;;;7.80;1.53;;;12.30;98.00;;;;;;5072468;28;20458;-63
2023/10/28 07:05:21;;;;;;;2.37;1.70;;;12.30;98.00;;;;;;5072209;28;20495;-63
2023/10/28 07:07:50;;;;;;;2.10;1.80;;;12.30;98.00;;;;;;5054256;28;20503;-62
2023/10/28 07:10:17;;;;;;;2.00;1.80;;;12.30;98.00;;;;;;5071215;28;20462;-63
2023/10/28 07:12:44;;;;;;;2.90;1.70;;;12.30;98.00;;;;;;5072244;28;20524;-63
2023/10/28 07:15:12;;;;;;;2.80;1.67;;;12.30;98.00;;;;;;5071961;28;20457;-63
2023/10/28 07:17:39;;;;;;;5.43;2.30;;;12.30;98.00;;;;;;5071706;28;20448;-63
2023/10/28 07:20:08;;;;;;;8.10;2.80;;;12.40;98.00;;;;;;5071730;28;20466;-63
2023/10/28 07:22:36;;;;;;;3.73;1.77;;;12.40;98.00;;;;;;5071754;28;20495;-63
2023/10/28 07:25:06;;;;;;;7.27;2.37;;;12.50;98.00;;;;;;5071812;28;20455;-63
2023/10/28 07:27:33;;;;;;;7.83;2.20;;;12.60;98.00;;;;;;5071724;28;20961;-63
2023/10/28 07:30:00;;;;;;;6.57;1.70;;;12.60;98.00;;;;;;5071902;28;20452;-63
2023/10/28 07:32:27;;;;;;;3.17;1.80;;;12.60;98.00;;;;;;5070487;28;20477;-64
2023/10/28 07:34:55;;;;;;;2.43;1.70;;;12.60;98.00;;;;;;5071785;28;20512;-63
2023/10/28 07:37:22;;;;;;;4.53;1.90;;;12.60;98.00;;;;;;5071717;28;20821;-63
2023/10/28 07:39:49;;;;;;;4.57;1.60;;;12.70;98.00;;;;;;5071631;28;20462;-62
2023/10/28 07:42:18;;;;;;;2.33;1.60;;;12.70;98.00;;;;;;5071600;28;20476;-63
2023/10/28 07:44:45;;;;;;;6.83;1.60;;;12.80;98.00;;;;;;5071687;28;20447;-64
2023/10/28 07:47:12;;;;;;;1.70;1.47;;;12.80;98.00;;;;;;5070202;28;20452;-63
2023/10/28 07:49:39;;;;;;;2.80;1.60;;;12.90;98.00;;;;;;5071355;28;20459;-63
2023/10/28 07:52:07;;;;;;;2.63;1.50;;;12.90;98.00;;;;;;5071243;28;20477;-63
2023/10/28 07:54:34;;;;;;;3.20;1.77;;;13.00;98.00;;;;;;5071546;28;20451;-63
2023/10/28 07:57:02;;;;;;;2.60;1.70;;;13.10;98.00;;;;;;5071489;28;20459;-63
2023/10/28 07:59:30;;;;;;;4.80;1.63;;;13.20;98.00;;;;;;5070261;28;20452;-63
2023/10/28 08:01:58;;;;;;;2.53;1.87;;;13.20;98.00;;;;;;5069767;28;20461;-62
2023/10/28 08:04:25;;;;;;;3.83;1.73;;;13.20;98.00;;;;;;5070596;28;20559;-63
2023/10/28 08:06:53;;;;;;;4.03;1.80;;;13.20;98.00;;;;;;5069812;28;20448;-62
2023/10/28 08:09:20;;;;;;;3.47;1.77;;;13.20;98.00;;;;;;5070055;28;20458;-63
2023/10/28 08:11:47;;;;;;;1.53;1.37;;;13.20;98.00;;;;;;5071145;28;20835;-63
2023/10/28 08:14:14;;;;;;;2.53;1.60;;;13.20;98.00;;;;;;5071158;28;20510;-63
2023/10/28 08:16:42;;;;;;;2.10;1.60;;;13.10;98.00;;;;;;5071252;28;20487;-62
2023/10/28 08:19:09;;;;;;;4.37;1.90;;;13.20;98.00;;;;;;5071247;28;20539;-62
2023/10/28 08:21:39;;;;;;;3.27;1.80;;;13.20;98.00;;;;;;5072592;28;20470;-62
2023/10/28 08:24:08;;;;;;;2.83;1.90;;;13.30;98.00;;;;;;5075395;28;20488;-63
2023/10/28 08:26:36;;;;;;;1.83;1.50;;;13.40;98.00;;;;;;5075083;28;20453;-63
2023/10/28 08:29:04;;;;;;;3.13;1.70;;;13.50;98.00;;;;;;5074807;28;20489;-62
2023/10/28 08:31:31;;;;;;;8.20;2.20;;;13.50;98.00;;;;;;5074991;28;20479;-62
2023/10/28 08:34:03;;;;;;;2.53;1.70;;;13.60;98.00;;;;;;5075473;28;20458;-62
2023/10/28 08:36:30;;;;;;;3.67;1.70;;;13.50;98.00;;;;;;5075636;28;20456;-62
2023/10/28 08:38:57;;;;;;;4.60;1.73;;;13.60;98.00;;;;;;5075828;28;20781;-62
2023/10/28 08:41:25;;;;;;;1.70;1.40;;;13.60;98.00;;;;;;5075534;28;20460;-63
2023/10/28 08:43:54;;;;;;;3.03;1.50;;;13.60;98.00;;;;;;5075216;28;20454;-62
2023/10/28 08:46:21;;;;;;;4.23;1.60;;;13.70;98.00;;;;;;5074663;28;20828;-62
2023/10/28 08:48:50;;;;;;;2.93;1.60;;;13.80;98.00;;;;;;5074545;28;20460;-62
2023/10/28 08:51:19;;;;;;;1.60;1.30;;;13.90;98.00;;;;;;5074501;28;20507;-62
2023/10/28 08:53:47;;;;;;;1.70;1.40;;;14.00;98.00;;;;;;5074527;28;20464;-63
2023/10/28 08:56:18;;;;;;;2.07;1.57;;;14.20;98.00;;;;;;5074338;28;20517;-63
2023/10/28 08:58:48;;;;;;;2.23;1.50;;;14.30;98.00;;;;;;5074437;28;20891;-63
2023/10/28 09:01:16;;;;;;;2.50;1.57;;;14.20;98.00;;;;;;5073873;28;20460;-63
2023/10/28 09:03:44;;;;;;;1.83;1.40;;;14.20;98.00;;;;;;5074238;28;20458;-63
2023/10/28 09:06:11;;;;;;;4.10;1.83;;;14.10;98.00;;;;;;5074246;28;20493;-63
2023/10/28 09:08:40;;;;;;;2.03;1.33;;;14.20;98.00;;;;;;5073021;28;20452;-63
2023/10/28 09:11:08;;;;;;;2.70;1.53;;;14.30;98.00;;;;;;5073901;28;20850;-63
2023/10/28 09:13:36;;;;;;;2.30;1.33;;;14.40;98.00;;;;;;5074392;28;20491;-62
2023/10/28 09:16:04;;;;;;;3.73;2.07;;;14.40;98.00;;;;;;5074338;28;20450;-63
2023/10/28 09:18:39;;;;;;;3.40;1.40;;;14.40;98.00;;;;;;5074123;28;20447;-63
2023/10/28 09:21:08;;;;;;;2.00;1.40;;;14.50;98.00;;;;;;5072784;28;20843;-62
2023/10/28 09:23:35;;;;;;;1.50;1.20;;;14.60;98.00;;;;;;5074184;28;20447;-62
2023/10/28 09:26:04;;;;;;;2.10;1.60;;;14.80;98.00;;;;;;5073944;28;20446;-63
2023/10/28 09:28:31;;;;;;;4.03;1.70;;;14.90;98.00;;;;;;5072328;28;20456;-64
2023/10/28 09:30:59;;;;;;;1.93;1.50;;;15.10;98.00;;;;;;5073544;28;20449;-63
2023/10/28 09:33:27;;;;;;;2.43;1.60;;;15.20;98.00;;;;;;5073018;28;20487;-63
2023/10/28 09:35:55;;;;;;;3.10;1.50;;;15.30;98.00;;;;;;5073764;28;20451;-63
2023/10/28 09:38:25;;;;;;;1.67;1.37;;;15.40;98.00;;;;;;5073650;28;20979;-62
2023/10/28 09:40:53;;;;;;;1.97;1.40;;;15.40;98.00;;;;;;5073998;28;20458;-62
2023/10/28 09:43:23;;;;;;;2.00;1.40;;;15.30;98.00;;;;;;5073068;28;20864;-63
2023/10/28 09:45:52;;;;;;;3.00;1.87;;;15.30;98.00;;;;;;5073575;28;20458;-63
2023/10/28 09:48:20;;;;;;;2.50;1.60;;;15.30;98.00;;;;;;5073796;28;20458;-63
2023/10/28 09:50:52;;;;;;;3.20;1.67;;;15.30;98.00;;;;;;5073773;28;20458;-63
2023/10/28 09:53:36;;;;;;;3.50;1.70;;;15.40;98.00;;;;;;5073778;28;20508;-63
2023/10/28 09:56:04;;;;;;;3.90;1.50;;;15.30;98.00;;;;;;5073847;28;20815;-63
2023/10/28 09:58:38;;;;;;;1.70;1.50;;;15.30;98.00;;;;;;5073634;28;20466;-63
2023/10/28 10:01:20;;;;;;;4.50;1.50;;;15.20;98.00;;;;;;5073351;28;20461;-64
2023/10/28 10:03:59;;;;;;;2.87;1.50;;;15.30;98.00;;;;;;5073434;28;20454;-63
2023/10/28 10:06:27;;;;;;;6.33;1.70;;;15.30;98.00;;;;;;5073339;28;20519;-63
2023/10/28 10:08:56;;;;;;;4.57;1.90;;;15.30;98.00;;;;;;5073218;28;20945;-62
2023/10/28 10:11:24;;;;;;;3.80;1.50;;;15.50;98.00;;;;;;5073301;28;21007;-63
2023/10/28 10:13:53;;;;;;;3.40;1.50;;;15.60;98.00;;;;;;5071927;28;20459;-63
2023/10/28 10:16:30;;;;;;;2.00;1.60;;;15.70;98.00;;;;;;5071948;28;20861;-63
2023/10/28 10:19:01;;;;;;;2.80;1.50;;;15.80;98.00;;;;;;5073137;28;20462;-63
2023/10/28 10:21:32;;;;;;;3.33;1.60;;;16.00;98.00;;;;;;5071775;28;20456;-63
2023/10/28 10:24:05;;;;;;;1.93;1.50;;;16.00;98.00;;;;;;5073216;28;20543;-64
2023/10/28 10:26:34;;;;;;;4.80;1.70;;;16.00;98.00;;;;;;5072969;28;20457;-63
2023/10/28 10:29:08;;;;;;;2.37;1.70;;;16.10;98.00;;;;;;5072943;28;20448;-63
2023/10/28 10:31:37;;;;;;;2.07;1.50;;;16.20;98.00;;;;;;5072507;28;20571;-63
2023/10/28 10:34:07;;;;;;;5.93;1.60;;;16.30;98.00;;;;;;5072841;28;20487;-63
2023/10/28 10:36:40;;;;;;;2.97;1.50;;;16.40;98.00;;;;;;5072841;28;20470;-63
2023/10/28 10:39:18;;;;;;;2.60;1.33;;;16.60;98.00;;;;;;5072807;28;20467;-64
2023/10/28 10:41:49;;;;;;;2.57;1.67;;;16.60;98.00;;;;;;5072554;28;20462;-63
2023/10/28 10:44:25;;;;;;;3.53;1.40;;;16.60;98.00;;;;;;5072157;28;20882;-63
2023/10/28 10:46:57;;;;;;;2.53;1.60;;;16.80;98.00;;;;;;5072243;28;20459;-64
2023/10/28 10:49:25;;;;;;;2.03;1.40;;;16.90;98.00;;;;;;5072421;28;20467;-63
2023/10/28 10:51:52;;;;;;;3.33;1.53;;;17.00;98.00;;;;;;5072626;28;20483;-63
2023/10/28 10:54:20;;;;;;;2.30;1.50;;;17.00;98.00;;;;;;5072661;28;20885;-63
2023/10/28 10:56:48;;;;;;;2.40;1.77;;;17.10;98.00;;;;;;5072209;28;20827;-63
2023/10/28 10:59:15;;;;;;;3.30;1.50;;;17.20;98.00;;;;;;5072300;28;20887;-63
2023/10/28 11:01:44;;;;;;;2.70;1.90;;;17.40;98.00;;;;;;5072048;28;20472;-63
2023/10/28 11:04:11;;;;;;;6.20;1.90;;;17.50;98.00;;;;;;5072292;28;20543;-63
2023/10/28 11:06:41;;;;;;;2.20;1.60;;;18.00;98.00;;;;;;5072206;28;20449;-63
2023/10/28 11:09:09;;;;;;;5.07;1.60;;;18.30;98.00;;;;;;5071857;28;20613;-63
2023/10/28 11:11:38;;;;;;;2.70;1.57;;;18.60;98.00;;;;;;5071941;28;20567;-62
2023/10/28 11:14:05;;;;;;;2.47;1.50;;;18.70;98.00;;;;;;5072237;28;20448;-63
2023/10/28 11:16:33;;;;;;;2.47;1.47;;;18.50;98.00;;;;;;5072093;28;20456;-63
2023/10/28 11:19:05;;;;;;;2.10;1.43;;;18.80;98.00;;;;;;5072294;28;20510;-63
2023/10/28 11:21:32;;;;;;;2.63;1.80;;;18.90;98.00;;;;;;5072211;28;20449;-63
2023/10/28 11:24:00;;;;;;;2.70;1.50;;;19.00;98.00;;;;;;5072015;28;20947;-63
2023/10/28 11:26:28;;;;;;;5.30;2.10;;;18.70;98.00;;;;;;5071986;28;20785;-63
2023/10/28 11:28:59;;;;;;;4.60;1.80;;;18.40;98.00;;;;;;5072109;28;20488;-63
2023/10/28 11:31:28;;;;;;;1.87;1.60;;;18.10;98.00;;;;;;5071801;28;20484;-63
2023/10/28 11:33:57;;;;;;;2.17;1.50;;;17.80;98.00;;;;;;5071746;28;20445;-63
2023/10/28 11:36:26;;;;;;;3.83;1.77;;;17.50;98.00;;;;;;5071434;28;20857;-63
2023/10/28 11:38:54;;;;;;;7.23;1.67;;;17.30;98.00;;;;;;5071635;28;20460;-63
2023/10/28 11:41:22;;;;;;;3.00;1.80;;;16.90;98.00;;;;;;5071754;28;20455;-63
2023/10/28 11:43:50;;;;;;;3.43;1.60;;;16.70;98.00;;;;;;5072267;28;20455;-63
2023/10/28 11:46:18;;;;;;;5.77;1.90;;;16.60;98.00;;;;;;5072101;28;20555;-63
2023/10/28 11:48:47;;;;;;;2.23;1.50;;;16.60;98.00;;;;;;5071945;28;20457;-63
2023/10/28 11:51:14;;;;;;;2.90;1.30;;;16.50;98.00;;;;;;5070486;28;20467;-63
2023/10/28 11:53:47;;;;;;;2.03;1.70;;;16.40;98.00;;;;;;5071694;28;20510;-62
2023/10/28 11:56:15;;;;;;;4.40;1.70;;;16.30;98.00;;;;;;5071635;28;20459;-64
2023/10/28 11:58:43;;;;;;;3.00;1.50;;;16.20;98.00;;;;;;5071792;28;20525;-63
2023/10/28 12:01:10;;;;;;;3.43;1.70;;;16.30;98.00;;;;;;5071883;28;20461;-63
2023/10/28 12:03:37;;;;;;;2.97;1.57;;;16.20;98.00;;;;;;5071224;28;20481;-63
2023/10/28 12:06:05;;;;;;;5.57;1.70;;;16.30;98.00;;;;;;5071832;28;20455;-63
2023/10/28 12:08:32;;;;;;;3.07;1.80;;;16.20;98.00;;;;;;5071724;28;20536;-62
2023/10/28 12:11:01;;;;;;;2.83;1.83;;;16.10;98.00;;;;;;5071863;28;20448;-63
2023/10/28 12:13:31;;;;;;;3.60;2.03;;;16.10;98.00;;;;;;5071716;28;20587;-64
2023/10/28 12:15:58;;;;;;;6.27;2.00;;;16.10;98.00;;;;;;5071628;28;20456;-62
2023/10/28 12:18:25;;;;;;;6.17;1.80;;;16.00;98.00;;;;;;5070286;28;20484;-62
2023/10/28 12:20:52;;;;;;;2.80;1.40;;;16.10;98.00;;;;;;5071733;28;20460;-63
2023/10/28 12:23:19;;;;;;;2.30;1.37;;;16.20;98.00;;;;;;5071685;28;20452;-62
2023/10/28 12:25:46;;;;;;;4.37;1.67;;;16.20;98.00;;;;;;5071688;28;20835;-64
2023/10/28 12:28:14;;;;;;;3.50;1.80;;;16.40;98.00;;;;;;5071743;28;20476;-62
2023/10/28 12:30:41;;;;;;;9.23;2.00;;;16.50;98.00;;;;;;5071709;28;20585;-63
2023/10/28 12:33:09;;;;;;;2.03;1.50;;;16.50;98.00;;;;;;5071202;28;20484;-63
2023/10/28 12:35:36;;;;;;;3.40;1.93;;;16.50;98.00;;;;;;5071095;28;20503;-63
2023/10/28 12:38:03;;;;;;;2.43;1.97;;;16.50;98.00;;;;;;5071169;28;20510;-63
2023/10/28 12:40:32;;;;;;;2.70;1.80;;;16.50;98.00;;;;;;5071142;28;20603;-63
2023/10/28 12:42:59;;;;;;;1.93;1.60;;;16.50;98.00;;;;;;5070581;28;20467;-63
2023/10/28 12:45:27;;;;;;;3.07;1.63;;;16.50;98.00;;;;;;5070505;28;20510;-63
2023/10/28 12:47:56;;;;;;;9.93;2.33;;;16.60;98.00;;;;;;5071702;28;21027;-63
2023/10/28 12:50:23;;;;;;;2.30;1.50;;;16.60;98.00;;;;;;5071597;28;20505;-64
2023/10/28 12:52:50;;;;;;;3.13;1.67;;;16.60;98.00;;;;;;5071599;28;20483;-63